createdAt,value
2019-01-14T00:00:50.292Z,3.57
2019-01-14T00:03:14.747Z,3.43
2019-01-14T00:05:39.158Z,3.67
2019-01-14T00:08:03.569Z,3.57
2019-01-14T00:10:27.984Z,3.63
2019-01-14T00:12:52.408Z,2.97
2019-01-14T00:15:16.863Z,3.80
2019-01-14T00:17:41.394Z,3.33
2019-01-14T00:20:08.853Z,4.40
2019-01-14T00:22:33.253Z,3.47
2019-01-14T00:24:57.670Z,3.63
2019-01-14T00:27:22.081Z,3.37
2019-01-14T00:29:46.471Z,2.77
2019-01-14T00:32:10.893Z,3.73
2019-01-14T00:34:35.290Z,3.73
2019-01-14T00:36:59.729Z,3.60
2019-01-14T00:39:24.120Z,4.27
2019-01-14T00:41:48.524Z,4.27
2019-01-14T00:44:12.943Z,4.50
2019-01-14T00:46:37.348Z,3.60
2019-01-14T00:49:01.765Z,3.93
2019-01-14T00:51:26.168Z,3.90
2019-01-14T00:53:50.573Z,4.17
2019-01-14T00:56:14.989Z,4.30
2019-01-14T00:58:39.395Z,3.83
2019-01-14T01:01:03.961Z,4.70
2019-01-14T01:03:28.362Z,4.47
2019-01-14T01:05:52.745Z,3.87
2019-01-14T01:08:17.153Z,5.20
2019-01-14T01:10:41.534Z,4.60
2019-01-14T01:13:06.008Z,3.27
2019-01-14T01:15:30.411Z,4.30
2019-01-14T01:17:54.823Z,4.73
2019-01-14T01:20:20.054Z,3.30
2019-01-14T01:22:44.619Z,3.93
2019-01-14T01:25:10.643Z,4.13
2019-01-14T01:27:35.054Z,4.07
2019-01-14T01:29:59.487Z,3.50
2019-01-14T01:32:23.872Z,4.33
2019-01-14T01:34:48.301Z,3.50
2019-01-14T01:37:12.695Z,4.90
2019-01-14T01:39:37.086Z,4.33
2019-01-14T01:42:01.493Z,4.70
2019-01-14T01:44:25.894Z,4.43
2019-01-14T01:46:50.323Z,5.03
2019-01-14T01:49:14.735Z,4.87
2019-01-14T01:51:39.457Z,5.00
2019-01-14T01:54:04.243Z,3.97
2019-01-14T01:56:28.649Z,4.77
2019-01-14T01:58:53.082Z,4.57
2019-01-14T02:01:17.492Z,4.23
2019-01-14T02:03:41.892Z,3.97
2019-01-14T02:06:06.291Z,4.57
2019-01-14T02:08:30.699Z,4.90
2019-01-14T02:10:55.138Z,3.90
2019-01-14T02:13:19.542Z,4.37
2019-01-14T02:15:43.992Z,4.73
2019-01-14T02:18:08.417Z,3.90
2019-01-14T02:20:32.815Z,4.63
2019-01-14T02:22:57.255Z,4.63
2019-01-14T02:25:21.649Z,5.00
2019-01-14T02:27:46.054Z,4.87
2019-01-14T02:30:13.886Z,5.23
2019-01-14T02:32:38.272Z,4.70
2019-01-14T02:35:02.706Z,4.43
2019-01-14T02:37:27.092Z,4.43
2019-01-14T02:39:51.489Z,3.93
2019-01-14T02:42:15.912Z,3.33
2019-01-14T02:44:40.307Z,4.20
2019-01-14T02:47:04.944Z,3.93
2019-01-14T02:49:29.352Z,4.33
2019-01-14T02:51:53.782Z,3.73
2019-01-14T02:54:18.177Z,4.03
2019-01-14T02:56:42.556Z,4.63
2019-01-14T02:59:06.959Z,4.40
2019-01-14T03:01:31.358Z,3.80
2019-01-14T03:03:55.762Z,4.17
2019-01-14T03:06:20.168Z,4.40
2019-01-14T03:08:44.543Z,3.67
2019-01-14T03:11:08.969Z,4.97
2019-01-14T03:13:33.353Z,4.63
2019-01-14T03:15:57.761Z,4.33
2019-01-14T03:18:22.150Z,4.23
2019-01-14T03:20:46.531Z,3.80
2019-01-14T03:23:10.939Z,3.60
2019-01-14T03:25:35.342Z,4.23
2019-01-14T03:27:59.852Z,3.87
2019-01-14T03:30:24.240Z,2.17
2019-01-14T03:32:48.644Z,3.90
2019-01-14T03:35:13.485Z,3.83
2019-01-14T03:37:37.975Z,3.67
2019-01-14T03:40:02.359Z,3.60
2019-01-14T03:42:26.771Z,3.40
2019-01-14T03:44:51.175Z,3.60
2019-01-14T03:47:15.603Z,3.50
2019-01-14T03:49:40.003Z,3.50
2019-01-14T03:52:04.418Z,3.77
2019-01-14T03:54:29.552Z,4.07
2019-01-14T03:56:53.950Z,4.07
2019-01-14T03:59:18.338Z,4.10
2019-01-14T04:01:42.800Z,3.37
2019-01-14T04:04:07.255Z,2.97
2019-01-14T04:06:31.666Z,3.43
2019-01-14T04:08:56.083Z,4.10
2019-01-14T04:11:20.457Z,3.13
2019-01-14T04:13:44.898Z,3.50
2019-01-14T04:16:09.297Z,4.37
2019-01-14T04:18:33.701Z,3.77
2019-01-14T04:20:58.092Z,4.27
2019-01-14T04:23:22.511Z,3.67
2019-01-14T04:25:46.913Z,4.03
2019-01-14T04:28:11.314Z,4.63
2019-01-14T04:30:35.723Z,3.80
2019-01-14T04:33:00.105Z,3.83
2019-01-14T04:35:24.598Z,4.13
2019-01-14T04:37:49.082Z,3.13
2019-01-14T04:40:14.904Z,3.50
2019-01-14T04:42:39.304Z,3.20
2019-01-14T04:45:04.743Z,3.40
2019-01-14T04:47:29.163Z,3.13
2019-01-14T04:49:53.580Z,3.10
2019-01-14T04:52:17.980Z,4.00
2019-01-14T04:54:42.413Z,3.53
2019-01-14T04:57:06.814Z,3.30
2019-01-14T04:59:31.229Z,3.13
2019-01-14T05:01:55.627Z,3.10
2019-01-14T05:04:20.044Z,2.80
2019-01-14T05:06:44.434Z,2.73
2019-01-14T05:09:08.906Z,2.53
2019-01-14T05:11:33.325Z,2.67
2019-01-14T05:13:57.725Z,2.57
2019-01-14T05:16:22.151Z,2.47
2019-01-14T05:18:46.558Z,2.83
2019-01-14T05:21:11.010Z,2.30
2019-01-14T05:23:35.400Z,2.57
2019-01-14T05:25:59.788Z,2.17
2019-01-14T05:28:24.210Z,2.63
2019-01-14T05:30:48.602Z,2.53
2019-01-14T05:33:13.000Z,2.60
2019-01-14T05:35:37.399Z,2.83
2019-01-14T05:38:01.821Z,2.20
2019-01-14T05:40:26.578Z,2.70
2019-01-14T05:42:51.072Z,1.63
2019-01-14T05:45:15.600Z,2.10
2019-01-14T05:47:40.003Z,2.53
2019-01-14T05:50:07.967Z,3.60
2019-01-14T05:52:32.364Z,2.13
2019-01-14T05:54:56.781Z,2.53
2019-01-14T05:57:21.196Z,2.03
2019-01-14T05:59:45.579Z,2.73
2019-01-14T06:02:09.994Z,1.90
2019-01-14T06:04:34.391Z,2.53
2019-01-14T06:06:58.803Z,2.47
2019-01-14T06:09:23.211Z,2.80
2019-01-14T06:11:47.623Z,2.27
2019-01-14T06:14:12.036Z,2.43
2019-01-14T06:16:36.422Z,2.40
2019-01-14T06:19:00.856Z,2.17
2019-01-14T06:21:25.244Z,2.50
2019-01-14T06:23:49.636Z,2.10
2019-01-14T06:26:14.059Z,2.43
2019-01-14T06:28:38.476Z,2.70
2019-01-14T06:31:02.846Z,1.90
2019-01-14T06:33:27.260Z,2.97
2019-01-14T06:35:51.642Z,2.60
2019-01-14T06:38:16.119Z,2.53
2019-01-14T06:40:40.593Z,2.23
2019-01-14T06:43:05.076Z,2.73
2019-01-14T06:45:29.491Z,2.30
2019-01-14T06:47:53.875Z,2.87
2019-01-14T06:50:19.746Z,2.57
2019-01-14T06:52:44.156Z,2.60
2019-01-14T06:55:08.878Z,2.30
2019-01-14T06:57:33.290Z,2.83
2019-01-14T06:59:57.671Z,2.30
2019-01-14T07:02:22.102Z,2.30
2019-01-14T07:04:46.480Z,2.60
2019-01-14T07:07:10.877Z,2.63
2019-01-14T07:09:35.289Z,2.23
2019-01-14T07:11:59.857Z,2.37
2019-01-14T07:14:24.249Z,2.63
2019-01-14T07:16:48.625Z,2.10
2019-01-14T07:19:13.049Z,2.33
2019-01-14T07:21:37.427Z,2.20
2019-01-14T07:24:01.826Z,2.47
2019-01-14T07:26:26.236Z,4.00
2019-01-14T07:28:50.613Z,2.50
2019-01-14T07:31:15.049Z,2.80
2019-01-14T07:33:39.450Z,2.93
2019-01-14T07:36:04.080Z,2.63
2019-01-14T07:38:28.476Z,2.77
2019-01-14T07:40:52.871Z,2.83
2019-01-14T07:43:17.294Z,2.93
2019-01-14T07:45:41.682Z,2.73
2019-01-14T07:48:06.158Z,2.70
2019-01-14T07:50:30.565Z,2.90
2019-01-14T07:52:54.946Z,2.70
2019-01-14T07:55:19.356Z,2.83
2019-01-14T07:57:43.774Z,2.20
2019-01-14T08:00:22.846Z,2.93
2019-01-14T08:02:47.250Z,3.07
2019-01-14T08:05:11.772Z,2.60
2019-01-14T08:07:36.182Z,2.43
2019-01-14T08:10:00.575Z,2.47
2019-01-14T08:12:24.994Z,2.83
2019-01-14T08:14:49.391Z,2.60
2019-01-14T08:17:13.764Z,2.77
2019-01-14T08:19:38.186Z,2.43
2019-01-14T08:22:02.582Z,2.90
2019-01-14T08:24:26.999Z,2.93
2019-01-14T08:26:51.396Z,2.60
2019-01-14T08:29:15.811Z,2.10
2019-01-14T08:31:40.200Z,2.97
2019-01-14T08:34:04.588Z,3.17
2019-01-14T08:36:29.001Z,2.67
2019-01-14T08:38:53.390Z,3.60
2019-01-14T08:41:18.213Z,2.90
2019-01-14T08:43:43.161Z,2.77
2019-01-14T08:46:08.028Z,2.40
2019-01-14T08:48:32.460Z,2.73
2019-01-14T08:50:56.843Z,2.13
2019-01-14T08:53:21.240Z,2.10
2019-01-14T08:55:45.646Z,1.87
2019-01-14T08:58:10.021Z,2.47
2019-01-14T09:00:34.437Z,2.43
2019-01-14T09:02:58.823Z,2.43
2019-01-14T09:05:23.286Z,2.70
2019-01-14T09:07:47.688Z,2.23
2019-01-14T09:10:15.229Z,2.23
2019-01-14T09:12:39.621Z,2.40
2019-01-14T09:15:05.639Z,2.40
2019-01-14T09:17:30.065Z,2.57
2019-01-14T09:19:54.458Z,2.30
2019-01-14T09:22:18.867Z,1.77
2019-01-14T09:24:43.272Z,2.10
2019-01-14T09:27:07.659Z,1.90
2019-01-14T09:29:32.067Z,2.43
2019-01-14T09:31:57.327Z,2.60
2019-01-14T09:34:21.889Z,2.37
2019-01-14T09:36:46.297Z,2.30
2019-01-14T09:39:10.759Z,1.90
2019-01-14T09:41:35.170Z,2.60
2019-01-14T09:43:59.611Z,2.83
2019-01-14T09:46:24.000Z,2.83
2019-01-14T09:48:48.427Z,2.50
2019-01-14T09:51:12.908Z,2.80
2019-01-14T09:53:37.316Z,2.57
2019-01-14T09:56:01.708Z,2.43
2019-01-14T09:58:26.116Z,1.87
2019-01-14T10:00:50.493Z,2.40
2019-01-14T10:03:14.911Z,2.40
2019-01-14T10:05:39.314Z,2.67
2019-01-14T10:08:03.761Z,2.83
2019-01-14T10:10:28.165Z,2.60
2019-01-14T10:12:52.559Z,2.63
2019-01-14T10:15:19.168Z,2.53
2019-01-14T10:17:43.750Z,2.63
2019-01-14T10:20:09.789Z,2.23
2019-01-14T10:22:34.256Z,2.87
2019-01-14T10:24:58.648Z,1.97
2019-01-14T10:27:23.058Z,2.77
2019-01-14T10:29:47.453Z,2.00
2019-01-14T10:32:11.901Z,2.80
2019-01-14T10:34:36.272Z,2.60
2019-01-14T10:37:00.665Z,2.67
2019-01-14T10:39:25.099Z,2.30
2019-01-14T10:41:49.479Z,3.27
2019-01-14T10:44:13.916Z,2.70
2019-01-14T10:46:38.300Z,2.43
2019-01-14T10:49:06.628Z,2.60
2019-01-14T10:51:28.814Z,2.60
2019-01-14T10:53:53.202Z,2.40
2019-01-14T10:56:17.608Z,2.47
2019-01-14T10:58:42.037Z,2.80
2019-01-14T11:01:06.468Z,2.57
2019-01-14T11:03:30.873Z,2.67
2019-01-14T11:05:55.263Z,2.47
2019-01-14T11:08:19.675Z,2.20
2019-01-14T11:10:44.057Z,2.27
2019-01-14T11:13:08.468Z,2.00
2019-01-14T11:15:32.867Z,1.93
2019-01-14T11:17:57.290Z,1.73
2019-01-14T11:20:24.222Z,1.93
2019-01-14T11:22:48.845Z,1.40
2019-01-14T11:25:13.582Z,1.67
2019-01-14T11:27:38.043Z,2.13
2019-01-14T11:30:02.467Z,1.60
2019-01-14T11:32:26.862Z,1.80
2019-01-14T11:34:51.256Z,1.77
2019-01-14T11:37:15.772Z,2.30
2019-01-14T11:39:40.174Z,2.07
2019-01-14T11:42:04.587Z,2.00
2019-01-14T11:44:28.998Z,1.80
2019-01-14T11:46:53.446Z,2.57
2019-01-14T11:49:17.845Z,2.50
2019-01-14T11:51:42.264Z,2.00
2019-01-14T11:54:06.671Z,1.70
2019-01-14T11:56:31.087Z,2.33
2019-01-14T11:58:55.466Z,1.90
2019-01-14T12:01:19.851Z,2.20
2019-01-14T12:03:44.275Z,2.50
2019-01-14T12:06:08.658Z,1.70
2019-01-14T12:08:33.075Z,1.37
2019-01-14T12:10:57.461Z,2.07
2019-01-14T12:13:21.853Z,2.20
2019-01-14T12:15:46.263Z,1.90
2019-01-14T12:18:10.649Z,2.17
2019-01-14T12:20:35.056Z,2.10
2019-01-14T12:22:59.522Z,2.20
2019-01-14T12:25:23.939Z,2.20
2019-01-14T12:27:48.391Z,2.10
2019-01-14T12:30:18.740Z,2.20
2019-01-14T12:32:43.155Z,2.43
2019-01-14T12:35:07.607Z,1.90
2019-01-14T12:37:32.077Z,2.37
2019-01-14T12:39:56.465Z,2.10
2019-01-14T12:42:20.855Z,1.87
2019-01-14T12:44:45.258Z,2.17
2019-01-14T12:47:09.640Z,1.90
2019-01-14T12:49:34.050Z,2.17
2019-01-14T12:51:58.440Z,2.00
2019-01-14T12:54:22.836Z,2.73
2019-01-14T12:56:47.232Z,2.23
2019-01-14T12:59:11.612Z,2.43
2019-01-14T13:01:36.014Z,1.90
2019-01-14T13:04:00.395Z,1.60
2019-01-14T13:06:24.885Z,2.47
2019-01-14T13:08:49.238Z,2.60
2019-01-14T13:11:13.633Z,2.10
2019-01-14T13:13:38.051Z,1.80
2019-01-14T13:16:02.495Z,1.97
2019-01-14T13:18:26.928Z,1.87
2019-01-14T13:20:51.324Z,1.80
2019-01-14T13:23:15.733Z,1.57
2019-01-14T13:25:40.174Z,2.27
2019-01-14T13:28:04.994Z,2.10
2019-01-14T13:30:29.837Z,2.20
2019-01-14T13:32:54.762Z,2.10
2019-01-14T13:35:19.187Z,2.20
2019-01-14T13:37:43.649Z,2.30
2019-01-14T13:40:12.538Z,2.00
2019-01-14T13:42:36.951Z,1.93
2019-01-14T13:45:01.344Z,1.63
2019-01-14T13:47:26.119Z,2.23
2019-01-14T13:49:50.530Z,1.63
2019-01-14T13:52:14.929Z,2.00
2019-01-14T13:54:39.346Z,2.00
2019-01-14T13:57:03.718Z,1.93
2019-01-14T13:59:28.099Z,2.10
2019-01-14T14:01:52.516Z,2.40
2019-01-14T14:04:16.903Z,1.90
2019-01-14T14:06:41.323Z,2.03
2019-01-14T14:09:08.521Z,2.10
2019-01-14T14:11:32.908Z,2.03
2019-01-14T14:13:58.200Z,2.07
2019-01-14T14:16:22.590Z,2.00
2019-01-14T14:18:46.985Z,1.77
2019-01-14T14:21:11.383Z,1.93
2019-01-14T14:23:35.785Z,2.20
2019-01-14T14:26:00.280Z,1.57
2019-01-14T14:28:24.669Z,2.33
2019-01-14T14:30:49.044Z,1.93
2019-01-14T14:33:13.527Z,2.23
2019-01-14T14:35:37.984Z,2.27
2019-01-14T14:38:02.604Z,2.37
2019-01-14T14:40:26.995Z,2.50
2019-01-14T14:42:51.413Z,2.27
2019-01-14T14:45:16.289Z,1.77
2019-01-14T14:47:40.681Z,1.80
2019-01-14T14:50:11.150Z,2.00
2019-01-14T14:52:35.517Z,2.00
2019-01-14T14:54:59.910Z,2.00
2019-01-14T14:57:24.364Z,1.70
2019-01-14T14:59:48.779Z,1.70
2019-01-14T15:02:13.216Z,1.80
2019-01-14T15:04:37.614Z,1.97
2019-01-14T15:07:02.000Z,1.87
2019-01-14T15:09:31.622Z,1.70
2019-01-14T15:11:52.501Z,1.60
2019-01-14T15:14:16.933Z,2.00
2019-01-14T15:16:41.325Z,2.77
2019-01-14T15:19:05.783Z,2.00
2019-01-14T15:21:30.210Z,2.30
2019-01-14T15:23:54.596Z,1.70
2019-01-14T15:26:19.035Z,2.23
2019-01-14T15:28:43.445Z,1.80
2019-01-14T15:31:07.847Z,1.90
2019-01-14T15:33:32.267Z,1.83
2019-01-14T15:35:56.677Z,2.37
2019-01-14T15:38:21.092Z,1.80
2019-01-14T15:40:45.570Z,2.40
2019-01-14T15:43:10.024Z,1.90
2019-01-14T15:45:34.481Z,2.03
2019-01-14T15:47:58.864Z,2.07
2019-01-14T15:50:23.285Z,1.50
2019-01-14T15:52:47.676Z,1.80
2019-01-14T15:55:25.380Z,1.77
2019-01-14T15:57:51.469Z,1.80
2019-01-14T16:00:19.964Z,1.60
2019-01-14T16:02:44.629Z,1.93
2019-01-14T16:05:09.268Z,1.20
2019-01-14T16:07:33.713Z,1.63
2019-01-14T16:09:58.108Z,1.73
2019-01-14T16:12:22.501Z,1.60
2019-01-14T16:14:46.943Z,1.53
2019-01-14T16:17:11.338Z,1.83
2019-01-14T16:19:35.772Z,2.27
2019-01-14T16:22:00.185Z,1.50
2019-01-14T16:24:24.584Z,1.90
2019-01-14T16:26:49.008Z,2.00
2019-01-14T16:29:13.409Z,2.10
2019-01-14T16:31:37.831Z,1.87
2019-01-14T16:34:02.238Z,1.60
2019-01-14T16:36:26.658Z,2.00
2019-01-14T16:38:51.086Z,2.00
2019-01-14T16:41:15.503Z,1.73
2019-01-14T16:43:39.938Z,1.63
2019-01-14T16:46:04.389Z,1.77
2019-01-14T16:48:28.816Z,2.23
2019-01-14T16:50:53.248Z,1.67
2019-01-14T16:53:17.652Z,2.30
2019-01-14T16:55:43.750Z,1.80
2019-01-14T16:58:08.169Z,1.80
2019-01-14T17:00:32.558Z,2.47
2019-01-14T17:02:57.016Z,2.00
2019-01-14T17:05:24.163Z,2.00
2019-01-14T17:07:48.555Z,2.00
2019-01-14T17:10:14.910Z,2.00
2019-01-14T17:12:39.293Z,2.07
2019-01-14T17:15:04.358Z,2.20
2019-01-14T17:17:33.212Z,2.10
2019-01-14T17:19:57.712Z,2.30
2019-01-14T17:22:22.114Z,2.10
2019-01-14T17:24:46.559Z,2.57
2019-01-14T17:27:11.014Z,2.07
2019-01-14T17:29:35.435Z,2.17
2019-01-14T17:31:59.837Z,2.13
2019-01-14T17:34:24.258Z,2.03
2019-01-14T17:36:48.680Z,2.50
2019-01-14T17:39:13.083Z,2.57
2019-01-14T17:41:38.227Z,2.07
2019-01-14T17:44:02.608Z,2.20
2019-01-14T17:46:27.075Z,2.13
2019-01-14T17:48:51.490Z,2.00
2019-01-14T17:51:17.537Z,1.70
2019-01-14T17:53:41.957Z,2.00
2019-01-14T17:56:06.382Z,2.27
2019-01-14T17:58:30.817Z,2.63
2019-01-14T18:00:55.234Z,2.57
2019-01-14T18:03:19.647Z,1.77
2019-01-14T18:05:44.067Z,2.63
2019-01-14T18:08:08.471Z,2.17
2019-01-14T18:10:39.717Z,2.43
2019-01-14T18:12:59.003Z,2.77
2019-01-14T18:15:23.449Z,2.23
2019-01-14T18:17:47.842Z,2.00
2019-01-14T18:20:14.899Z,2.77
2019-01-14T18:22:39.335Z,3.10
2019-01-14T18:25:04.792Z,2.43
2019-01-14T18:27:29.213Z,2.93
2019-01-14T18:29:53.614Z,2.30
2019-01-14T18:32:18.045Z,2.10
2019-01-14T18:34:42.470Z,2.40
2019-01-14T18:37:06.855Z,2.40
2019-01-14T18:39:31.301Z,2.53
2019-01-14T18:41:55.693Z,1.83
2019-01-14T18:44:20.091Z,2.57
2019-01-14T18:46:44.542Z,2.50
2019-01-14T18:49:08.938Z,1.90
2019-01-14T18:51:33.380Z,2.27
2019-01-14T18:53:57.783Z,2.60
2019-01-14T18:56:22.239Z,2.50
2019-01-14T18:58:46.645Z,2.30
2019-01-14T19:01:11.047Z,2.00
2019-01-14T19:03:35.484Z,2.20
2019-01-14T19:05:59.900Z,2.43
2019-01-14T19:08:24.347Z,2.30
2019-01-14T19:10:54.303Z,2.40
2019-01-14T19:13:14.860Z,2.57
2019-01-14T19:15:39.361Z,2.57
2019-01-14T19:18:03.841Z,2.30
2019-01-14T19:20:28.431Z,2.10
2019-01-14T19:22:52.892Z,2.30
2019-01-14T19:25:17.304Z,1.97
2019-01-14T19:27:41.730Z,2.07
2019-01-14T19:30:09.194Z,2.50
2019-01-14T19:32:38.322Z,3.33
2019-01-14T19:34:59.687Z,2.93
2019-01-14T19:37:24.086Z,2.10
2019-01-14T19:39:48.493Z,2.50
2019-01-14T19:42:12.941Z,2.47
2019-01-14T19:44:37.338Z,2.60
2019-01-14T19:47:01.755Z,2.70
2019-01-14T19:49:26.199Z,2.13
2019-01-14T19:51:50.578Z,2.33
2019-01-14T19:54:14.988Z,2.20
2019-01-14T19:56:39.510Z,2.90
2019-01-14T19:59:04.205Z,2.77
2019-01-14T20:01:28.624Z,2.70
2019-01-14T20:03:53.025Z,2.37
2019-01-14T20:06:17.527Z,2.10
2019-01-14T20:08:41.961Z,2.17
2019-01-14T20:11:09.375Z,2.53
2019-01-14T20:13:32.525Z,2.67
2019-01-14T20:15:56.968Z,2.53
2019-01-14T20:18:21.473Z,3.20
2019-01-14T20:20:45.883Z,2.50
2019-01-14T20:23:10.305Z,2.33
2019-01-14T20:25:34.721Z,1.97
2019-01-14T20:27:59.111Z,1.87
2019-01-14T20:30:23.775Z,2.53
2019-01-14T20:32:48.176Z,2.30
2019-01-14T20:35:12.637Z,2.43
2019-01-14T20:37:37.042Z,2.57
2019-01-14T20:40:01.454Z,2.80
2019-01-14T20:42:25.901Z,2.47
2019-01-14T20:44:50.340Z,2.93
2019-01-14T20:47:14.748Z,2.40
2019-01-14T20:49:39.163Z,2.37
2019-01-14T20:52:03.583Z,1.93
2019-01-14T20:54:28.023Z,2.87
2019-01-14T20:56:52.415Z,2.30
2019-01-14T20:59:16.830Z,2.90
2019-01-14T21:01:41.274Z,2.83
2019-01-14T21:04:05.678Z,2.40
2019-01-14T21:06:30.137Z,2.50
2019-01-14T21:08:54.558Z,2.80
2019-01-14T21:11:23.920Z,2.60
2019-01-14T21:13:45.179Z,3.00
2019-01-14T21:16:09.566Z,2.43
2019-01-14T21:18:34.029Z,2.83
2019-01-14T21:20:58.425Z,2.83
2019-01-14T21:23:22.842Z,3.27
2019-01-14T21:25:47.263Z,2.70
2019-01-14T21:28:11.685Z,2.60
2019-01-14T21:30:36.113Z,2.70
2019-01-14T21:33:00.529Z,2.60
2019-01-14T21:35:24.985Z,2.60
2019-01-14T21:37:50.110Z,2.50
2019-01-14T21:40:14.947Z,2.63
2019-01-14T21:42:39.383Z,2.70
2019-01-14T21:45:04.914Z,2.70
2019-01-14T21:47:32.697Z,2.50
2019-01-14T21:49:55.480Z,2.10
2019-01-14T21:52:19.886Z,2.50
2019-01-14T21:54:44.294Z,3.17
2019-01-14T21:57:08.724Z,2.10
2019-01-14T21:59:33.115Z,2.23
2019-01-14T22:01:57.512Z,2.20
2019-01-14T22:04:21.939Z,2.60
2019-01-14T22:06:46.350Z,2.87
2019-01-14T22:09:10.943Z,2.97
2019-01-14T22:11:38.756Z,2.67
2019-01-14T22:14:01.525Z,2.73
2019-01-14T22:16:25.929Z,2.60
2019-01-14T22:18:50.333Z,2.80
2019-01-14T22:21:14.747Z,2.70
2019-01-14T22:23:39.142Z,2.50
2019-01-14T22:26:03.536Z,2.77
2019-01-14T22:28:27.960Z,2.63
2019-01-14T22:30:52.352Z,2.67
2019-01-14T22:33:16.793Z,3.13
2019-01-14T22:35:41.185Z,2.83
2019-01-14T22:38:05.597Z,2.97
2019-01-14T22:40:30.026Z,2.50
2019-01-14T22:42:54.500Z,3.50
2019-01-14T22:45:18.907Z,2.33
2019-01-14T22:47:43.292Z,2.43
2019-01-14T22:50:16.261Z,2.60
2019-01-14T22:52:40.661Z,2.87
2019-01-14T22:55:07.212Z,2.50
2019-01-14T22:57:31.624Z,2.60
2019-01-14T22:59:56.016Z,3.07
2019-01-14T23:02:20.431Z,3.37
2019-01-14T23:04:44.858Z,2.40
2019-01-14T23:07:09.239Z,3.20
2019-01-14T23:09:33.684Z,2.93
2019-01-14T23:11:58.065Z,2.57
2019-01-14T23:14:22.453Z,2.37
2019-01-14T23:16:46.875Z,2.93
2019-01-14T23:19:11.342Z,2.47
2019-01-14T23:21:35.769Z,2.90
2019-01-14T23:24:00.224Z,3.10
2019-01-14T23:26:24.621Z,3.27
2019-01-14T23:28:49.048Z,2.70
2019-01-14T23:31:13.559Z,2.73
2019-01-14T23:33:37.973Z,2.63
2019-01-14T23:36:02.372Z,2.40
2019-01-14T23:38:26.781Z,2.77
2019-01-14T23:40:51.183Z,3.87
2019-01-14T23:43:15.581Z,2.93
2019-01-14T23:45:39.981Z,2.23
2019-01-14T23:48:04.610Z,2.20
2019-01-14T23:50:29.047Z,2.47
2019-01-14T23:52:53.473Z,2.40
2019-01-14T23:55:17.889Z,3.00
2019-01-14T23:57:42.306Z,2.73
